createdAt,value
2018-10-16T00:02:08.303Z,17.00
2018-10-16T00:04:36.929Z,19.37
2018-10-16T00:07:05.319Z,15.73
2018-10-16T00:09:33.434Z,17.00
2018-10-16T00:12:05.101Z,15.30
2018-10-16T00:14:35.382Z,17.33
2018-10-16T00:17:04.286Z,14.43
2018-10-16T00:19:33.145Z,14.73
2018-10-16T00:22:02.152Z,17.60
2018-10-16T00:24:30.254Z,15.77
2018-10-16T00:26:58.420Z,16.50
2018-10-16T00:29:26.629Z,15.70
2018-10-16T00:31:54.914Z,17.10
2018-10-16T00:34:23.100Z,15.03
2018-10-16T00:36:51.210Z,16.63
2018-10-16T00:39:19.251Z,18.00
2018-10-16T00:41:52.313Z,16.30
2018-10-16T00:44:20.428Z,17.30
2018-10-16T00:46:48.918Z,16.60
2018-10-16T00:49:17.295Z,21.37
2018-10-16T00:51:45.461Z,18.23
2018-10-16T00:54:13.568Z,18.60
2018-10-16T00:56:41.615Z,16.90
2018-10-16T00:59:09.676Z,18.17
2018-10-16T01:01:37.621Z,17.07
2018-10-16T01:04:06.745Z,18.47
2018-10-16T01:06:35.680Z,17.20
2018-10-16T01:09:08.249Z,21.53
2018-10-16T01:11:36.647Z,17.77
2018-10-16T01:14:05.079Z,17.03
2018-10-16T01:16:33.576Z,18.50
2018-10-16T01:19:01.896Z,18.60
2018-10-16T01:21:30.445Z,19.07
2018-10-16T01:23:58.705Z,20.33
2018-10-16T01:26:27.239Z,16.83
2018-10-16T01:28:55.516Z,20.17
2018-10-16T01:31:23.827Z,17.97
2018-10-16T01:33:52.174Z,15.80
2018-10-16T01:36:20.266Z,18.83
2018-10-16T01:38:48.574Z,16.40
2018-10-16T01:41:16.733Z,19.23
2018-10-16T01:43:45.174Z,19.87
2018-10-16T01:46:13.367Z,18.83
2018-10-16T01:48:41.606Z,18.13
2018-10-16T01:51:09.818Z,18.90
2018-10-16T01:53:37.930Z,17.53
2018-10-16T01:56:06.111Z,18.83
2018-10-16T01:58:34.375Z,19.33
2018-10-16T02:01:02.705Z,16.30
2018-10-16T02:03:30.959Z,20.43
2018-10-16T02:05:59.171Z,17.47
2018-10-16T02:08:27.223Z,18.57
2018-10-16T02:10:55.363Z,20.57
2018-10-16T02:13:23.926Z,19.07
2018-10-16T02:15:52.044Z,19.90
2018-10-16T02:18:20.181Z,20.77
2018-10-16T02:20:48.374Z,18.67
2018-10-16T02:23:16.785Z,20.17
2018-10-16T02:25:45.070Z,18.53
2018-10-16T02:28:13.193Z,19.80
2018-10-16T02:30:41.746Z,19.80
2018-10-16T02:33:09.962Z,21.23
2018-10-16T02:35:38.178Z,19.43
2018-10-16T02:38:06.406Z,19.47
2018-10-16T02:40:34.618Z,23.53
2018-10-16T02:43:03.047Z,17.23
2018-10-16T02:45:31.481Z,18.00
2018-10-16T02:47:59.875Z,20.80
2018-10-16T02:50:27.999Z,19.90
2018-10-16T02:52:56.134Z,21.73
2018-10-16T02:55:24.275Z,21.90
2018-10-16T02:57:52.414Z,19.70
2018-10-16T03:00:20.818Z,22.63
2018-10-16T03:02:48.995Z,22.83
2018-10-16T03:05:17.346Z,16.97
2018-10-16T03:07:45.852Z,17.80
2018-10-16T03:10:14.084Z,19.53
2018-10-16T03:12:42.332Z,19.77
2018-10-16T03:15:12.260Z,18.00
2018-10-16T03:17:40.592Z,24.73
2018-10-16T03:20:09.715Z,21.23
2018-10-16T03:22:38.278Z,19.90
2018-10-16T03:25:08.456Z,21.03
2018-10-16T03:27:36.773Z,19.60
2018-10-16T03:30:06.936Z,23.57
2018-10-16T03:32:35.420Z,19.77
2018-10-16T03:35:03.971Z,21.80
2018-10-16T03:37:32.060Z,23.60
2018-10-16T03:40:00.470Z,25.20
2018-10-16T03:42:28.772Z,20.53
2018-10-16T03:44:57.067Z,22.43
2018-10-16T03:47:25.330Z,28.10
2018-10-16T03:49:53.563Z,27.57
2018-10-16T03:52:22.090Z,25.10
2018-10-16T03:54:50.220Z,27.97
2018-10-16T03:57:18.490Z,26.43
2018-10-16T03:59:46.604Z,29.60
2018-10-16T04:02:14.777Z,31.70
2018-10-16T04:04:42.844Z,33.50
2018-10-16T04:07:10.972Z,29.87
2018-10-16T04:09:39.288Z,34.80
2018-10-16T04:12:07.774Z,31.40
2018-10-16T04:14:35.804Z,35.87
2018-10-16T04:17:04.801Z,30.13
2018-10-16T04:19:33.015Z,34.77
2018-10-16T04:22:01.224Z,32.20
2018-10-16T04:24:29.452Z,32.60
2018-10-16T04:26:57.921Z,27.13
2018-10-16T04:29:26.149Z,26.10
2018-10-16T04:31:54.339Z,28.13
2018-10-16T04:34:22.637Z,20.30
2018-10-16T04:36:50.750Z,23.17
2018-10-16T04:39:19.191Z,23.20
2018-10-16T04:41:47.707Z,26.23
2018-10-16T04:44:15.764Z,22.63
2018-10-16T04:46:44.010Z,24.27
2018-10-16T04:49:12.034Z,26.07
2018-10-16T04:51:40.307Z,25.13
2018-10-16T04:54:08.778Z,27.30
2018-10-16T04:56:37.104Z,27.43
2018-10-16T04:59:05.655Z,28.07
2018-10-16T05:01:33.995Z,27.17
2018-10-16T05:04:02.379Z,30.27
2018-10-16T05:06:30.557Z,29.10
2018-10-16T05:08:58.792Z,27.57
2018-10-16T05:11:27.134Z,27.93
2018-10-16T05:13:55.578Z,28.00
2018-10-16T05:16:23.762Z,27.30
2018-10-16T05:18:51.966Z,26.87
2018-10-16T05:21:20.741Z,24.37
2018-10-16T05:23:49.131Z,24.77
2018-10-16T05:26:17.209Z,27.33
2018-10-16T05:28:45.437Z,25.00
2018-10-16T05:31:13.773Z,25.93
2018-10-16T05:33:42.071Z,25.70
2018-10-16T05:36:10.313Z,25.50
2018-10-16T05:38:38.506Z,23.40
2018-10-16T05:41:07.257Z,25.63
2018-10-16T05:43:35.446Z,23.37
2018-10-16T05:46:03.886Z,25.67
2018-10-16T05:48:42.280Z,28.60
2018-10-16T05:51:10.487Z,22.53
2018-10-16T05:53:39.008Z,25.07
2018-10-16T05:56:07.465Z,29.63
2018-10-16T05:58:35.747Z,26.30
2018-10-16T06:01:03.991Z,25.27
2018-10-16T06:03:32.338Z,20.83
2018-10-16T06:06:00.623Z,24.63
2018-10-16T06:08:28.878Z,27.97
2018-10-16T06:10:57.209Z,23.93
2018-10-16T06:13:25.719Z,26.00
2018-10-16T06:15:54.170Z,25.57
2018-10-16T06:18:22.486Z,25.60
2018-10-16T06:20:50.711Z,24.80
2018-10-16T06:23:19.056Z,22.97
2018-10-16T06:25:47.184Z,27.43
2018-10-16T06:28:20.082Z,23.00
2018-10-16T06:30:48.309Z,23.73
2018-10-16T06:33:21.543Z,25.03
2018-10-16T06:35:49.721Z,25.13
2018-10-16T06:38:18.137Z,24.30
2018-10-16T06:40:46.440Z,22.00
2018-10-16T06:43:17.538Z,23.67
2018-10-16T06:45:46.189Z,15.80
2018-10-16T06:48:14.682Z,17.00
2018-10-16T06:50:42.728Z,16.87
2018-10-16T06:53:11.622Z,17.27
2018-10-16T06:55:39.642Z,15.73
2018-10-16T06:58:07.888Z,14.57
2018-10-16T07:00:35.958Z,15.13
2018-10-16T07:03:04.559Z,14.70
2018-10-16T07:05:32.860Z,17.00
2018-10-16T07:08:01.344Z,17.37
2018-10-16T07:10:29.629Z,16.03
2018-10-16T07:12:57.802Z,13.77
2018-10-16T07:15:25.817Z,16.23
2018-10-16T07:17:53.963Z,16.67
2018-10-16T07:20:22.187Z,14.83
2018-10-16T07:22:50.982Z,15.67
2018-10-16T07:25:19.206Z,18.67
2018-10-16T07:27:47.515Z,15.97
2018-10-16T07:30:16.240Z,13.30
2018-10-16T07:32:44.242Z,13.63
2018-10-16T07:35:12.415Z,13.07
2018-10-16T07:37:40.853Z,14.83
2018-10-16T07:40:10.453Z,19.67
2018-10-16T07:42:39.108Z,14.60
2018-10-16T07:45:07.932Z,18.13
2018-10-16T07:47:36.583Z,16.20
2018-10-16T07:50:07.973Z,14.87
2018-10-16T07:52:36.479Z,14.77
2018-10-16T07:55:07.117Z,17.90
2018-10-16T07:57:35.352Z,18.47
2018-10-16T08:00:03.994Z,18.53
2018-10-16T08:02:32.773Z,22.70
2018-10-16T08:05:00.978Z,16.23
2018-10-16T08:07:29.262Z,15.03
2018-10-16T08:09:57.489Z,16.63
2018-10-16T08:12:25.687Z,16.83
2018-10-16T08:14:53.787Z,16.40
2018-10-16T08:17:22.019Z,19.17
2018-10-16T08:19:50.364Z,16.80
2018-10-16T08:22:18.516Z,17.10
2018-10-16T08:24:46.998Z,16.70
2018-10-16T08:27:15.093Z,12.83
2018-10-16T08:29:43.389Z,18.57
2018-10-16T08:32:11.578Z,14.27
2018-10-16T08:34:39.792Z,14.30
2018-10-16T08:37:11.042Z,14.17
2018-10-16T08:39:42.331Z,18.60
2018-10-16T08:42:26.317Z,19.17
2018-10-16T08:45:21.115Z,16.90
2018-10-16T08:48:06.428Z,18.83
2018-10-16T08:50:52.062Z,13.93
2018-10-16T08:53:20.221Z,14.27
2018-10-16T08:55:48.364Z,18.37
2018-10-16T08:58:16.612Z,14.83
2018-10-16T09:00:44.708Z,13.57
2018-10-16T09:03:13.050Z,14.13
2018-10-16T09:05:41.258Z,12.93
2018-10-16T09:08:09.471Z,13.77
2018-10-16T09:10:37.698Z,14.60
2018-10-16T09:13:05.988Z,14.43
2018-10-16T09:15:34.189Z,14.40
2018-10-16T09:18:02.521Z,14.70
2018-10-16T09:20:30.884Z,20.83
2018-10-16T09:22:59.219Z,12.60
2018-10-16T09:25:27.431Z,16.27
2018-10-16T09:27:55.717Z,14.47
2018-10-16T09:30:23.794Z,13.43
2018-10-16T09:32:51.858Z,14.27
2018-10-16T09:35:19.963Z,15.07
2018-10-16T09:37:48.245Z,13.80
2018-10-16T09:40:16.243Z,17.77
2018-10-16T09:42:44.352Z,13.40
2018-10-16T09:45:12.591Z,12.80
2018-10-16T09:47:40.987Z,16.23
2018-10-16T09:50:09.905Z,12.63
2018-10-16T09:52:38.214Z,13.10
2018-10-16T09:55:08.736Z,14.07
2018-10-16T09:57:37.063Z,13.47
2018-10-16T10:00:13.943Z,14.87
2018-10-16T10:02:42.229Z,10.80
2018-10-16T10:05:10.586Z,12.60
2018-10-16T10:07:38.977Z,12.65
2018-10-16T10:10:07.433Z,15.13
2018-10-16T10:12:35.558Z,11.57
2018-10-16T10:15:03.756Z,13.88
2018-10-16T10:17:31.837Z,16.40
2018-10-16T10:20:00.322Z,12.20
2018-10-16T10:22:28.516Z,10.75
2018-10-16T10:24:57.120Z,13.70
2018-10-16T10:27:25.437Z,13.18
2018-10-16T10:29:53.859Z,14.45
2018-10-16T10:32:22.097Z,12.53
2018-10-16T10:34:50.258Z,13.20
2018-10-16T10:37:18.449Z,12.33
2018-10-16T10:39:46.617Z,13.80
2018-10-16T10:42:14.793Z,13.40
2018-10-16T10:44:42.975Z,12.03
2018-10-16T10:47:11.271Z,12.80
2018-10-16T10:49:49.424Z,11.90
2018-10-16T10:52:17.532Z,13.33
2018-10-16T10:54:45.903Z,27.17
2018-10-16T10:57:14.208Z,11.13
2018-10-16T10:59:42.520Z,12.70
2018-10-16T11:02:10.875Z,14.87
2018-10-16T11:04:39.044Z,9.93
2018-10-16T11:07:07.657Z,9.60
2018-10-16T11:09:35.969Z,13.43
2018-10-16T11:12:04.339Z,11.63
2018-10-16T11:14:32.507Z,13.73
2018-10-16T11:17:00.610Z,13.50
2018-10-16T11:19:28.729Z,14.43
2018-10-16T11:21:56.730Z,12.70
2018-10-16T11:24:24.864Z,11.47
2018-10-16T11:26:52.944Z,11.40
2018-10-16T11:29:21.131Z,10.27
2018-10-16T11:31:49.334Z,10.37
2018-10-16T11:34:17.512Z,15.93
2018-10-16T11:36:45.711Z,12.13
2018-10-16T11:39:13.949Z,11.37
2018-10-16T11:41:42.127Z,11.70
2018-10-16T11:44:11.498Z,10.97
2018-10-16T11:46:40.467Z,8.60
2018-10-16T11:49:08.920Z,12.10
2018-10-16T11:51:37.396Z,9.47
2018-10-16T11:54:06.284Z,8.17
2018-10-16T11:56:34.339Z,10.37
2018-10-16T11:59:04.884Z,11.23
2018-10-16T12:01:33.036Z,14.10
2018-10-16T12:04:01.334Z,12.03
2018-10-16T12:06:29.463Z,8.43
2018-10-16T12:08:57.756Z,11.93
2018-10-16T12:11:26.359Z,11.83
2018-10-16T12:13:54.628Z,9.10
2018-10-16T12:16:26.224Z,10.07
2018-10-16T12:19:00.190Z,8.90
2018-10-16T12:21:28.457Z,10.30
2018-10-16T12:23:56.821Z,8.27
2018-10-16T12:26:24.937Z,7.60
2018-10-16T12:28:53.287Z,10.87
2018-10-16T12:31:21.938Z,11.13
2018-10-16T12:33:50.029Z,9.63
2018-10-16T12:36:18.081Z,9.17
2018-10-16T12:38:46.220Z,10.00
2018-10-16T12:41:14.371Z,8.70
2018-10-16T12:43:42.688Z,7.57
2018-10-16T12:46:10.851Z,9.77
2018-10-16T12:48:39.183Z,7.57
2018-10-16T12:51:07.480Z,9.47
2018-10-16T12:53:35.871Z,9.60
2018-10-16T12:56:05.178Z,9.73
2018-10-16T12:58:33.535Z,7.87
2018-10-16T13:01:02.151Z,10.97
2018-10-16T13:03:30.404Z,10.17
2018-10-16T13:05:58.702Z,8.13
2018-10-16T13:08:26.867Z,12.33
2018-10-16T13:10:54.919Z,13.27
2018-10-16T13:13:23.090Z,11.10
2018-10-16T13:15:51.355Z,11.87
2018-10-16T13:18:19.571Z,8.97
2018-10-16T13:20:48.318Z,12.20
2018-10-16T13:23:16.701Z,12.03
2018-10-16T13:25:44.840Z,11.87
2018-10-16T13:28:13.358Z,9.50
2018-10-16T13:30:41.942Z,11.77
2018-10-16T13:33:10.105Z,11.10
2018-10-16T13:35:38.207Z,13.17
2018-10-16T13:38:06.450Z,10.87
2018-10-16T13:40:34.648Z,14.07
2018-10-16T13:43:03.270Z,11.23
2018-10-16T13:45:32.107Z,11.80
2018-10-16T13:48:00.369Z,8.83
2018-10-16T13:50:28.776Z,13.97
2018-10-16T13:52:57.409Z,11.40
2018-10-16T13:55:25.930Z,10.03
2018-10-16T13:57:54.425Z,10.40
2018-10-16T14:00:22.694Z,11.93
2018-10-16T14:02:52.023Z,10.30
2018-10-16T14:05:20.058Z,13.10
2018-10-16T14:07:48.338Z,14.10
2018-10-16T14:10:17.091Z,8.73
2018-10-16T14:12:46.087Z,11.97
2018-10-16T14:15:14.885Z,10.20
2018-10-16T14:17:43.030Z,7.20
2018-10-16T14:20:11.373Z,7.90
2018-10-16T14:22:41.089Z,7.83
2018-10-16T14:25:11.238Z,8.03
2018-10-16T14:27:40.397Z,8.57
2018-10-16T14:30:10.868Z,9.67
2018-10-16T14:32:39.427Z,7.50
2018-10-16T14:35:08.956Z,12.30
2018-10-16T14:37:37.866Z,11.30
2018-10-16T14:40:07.922Z,9.33
2018-10-16T14:42:36.052Z,8.37
2018-10-16T14:45:05.241Z,9.23
2018-10-16T14:47:33.468Z,7.20
2018-10-16T14:50:02.101Z,7.17
2018-10-16T14:52:30.400Z,7.87
2018-10-16T14:54:58.785Z,7.53
2018-10-16T14:57:26.995Z,6.73
2018-10-16T14:59:55.355Z,8.20
2018-10-16T15:02:23.595Z,6.67
2018-10-16T15:04:51.742Z,10.50
2018-10-16T15:07:20.374Z,7.87
2018-10-16T15:09:48.783Z,8.57
2018-10-16T15:12:16.901Z,9.90
2018-10-16T15:14:44.922Z,6.40
2018-10-16T15:17:13.255Z,8.97
2018-10-16T15:19:41.395Z,6.57
2018-10-16T15:22:09.617Z,10.37
2018-10-16T15:24:37.673Z,8.90
2018-10-16T15:27:05.847Z,9.67
2018-10-16T15:29:34.237Z,8.90
2018-10-16T15:32:02.716Z,26.43
2018-10-16T15:34:31.081Z,10.67
2018-10-16T15:36:59.535Z,10.73
2018-10-16T15:39:28.269Z,8.70
2018-10-16T15:41:56.464Z,15.23
2018-10-16T15:44:25.045Z,15.70
2018-10-16T15:46:53.206Z,13.93
2018-10-16T15:49:21.531Z,17.50
2018-10-16T15:51:49.770Z,16.33
2018-10-16T15:54:18.058Z,12.53
2018-10-16T15:56:46.222Z,13.50
2018-10-16T15:59:14.618Z,10.20
2018-10-16T16:01:42.849Z,10.73
2018-10-16T16:04:11.076Z,11.17
2018-10-16T16:06:39.542Z,10.97
2018-10-16T16:09:08.069Z,12.50
2018-10-16T16:11:36.303Z,12.43
2018-10-16T16:14:05.149Z,11.10
2018-10-16T16:16:33.352Z,14.93
2018-10-16T16:19:01.555Z,16.40
2018-10-16T16:21:29.777Z,11.43
2018-10-16T16:23:58.662Z,11.70
2018-10-16T16:26:27.077Z,12.00
2018-10-16T16:28:55.239Z,11.50
2018-10-16T16:31:23.752Z,11.37
2018-10-16T16:33:51.960Z,12.13
2018-10-16T16:36:20.157Z,14.77
2018-10-16T16:38:48.401Z,20.20
2018-10-16T16:41:16.553Z,13.87
2018-10-16T16:43:44.732Z,10.87
2018-10-16T16:46:13.292Z,16.43
2018-10-16T16:48:41.762Z,18.10
2018-10-16T16:51:10.040Z,18.77
2018-10-16T16:53:38.846Z,21.87
2018-10-16T16:56:07.592Z,16.00
2018-10-16T16:58:35.982Z,18.73
2018-10-16T17:01:04.503Z,16.43
2018-10-16T17:03:32.666Z,15.97
2018-10-16T17:06:01.201Z,19.73
2018-10-16T17:08:29.431Z,16.10
2018-10-16T17:10:57.610Z,25.47
2018-10-16T17:13:25.966Z,16.33
2018-10-16T17:15:54.068Z,13.83
2018-10-16T17:18:22.292Z,14.47
2018-10-16T17:20:50.450Z,11.93
2018-10-16T17:23:18.660Z,11.67
2018-10-16T17:25:47.416Z,12.80
2018-10-16T17:28:15.619Z,15.23
2018-10-16T17:30:43.852Z,15.40
2018-10-16T17:33:12.217Z,16.63
2018-10-16T17:35:40.599Z,13.23
2018-10-16T17:38:08.931Z,12.77
2018-10-16T17:40:38.846Z,15.37
2018-10-16T17:43:06.970Z,16.93
2018-10-16T17:45:35.277Z,14.23
2018-10-16T17:48:03.612Z,12.83
2018-10-16T17:50:31.863Z,17.20
2018-10-16T17:53:00.006Z,15.73
2018-10-16T17:55:28.710Z,19.43
2018-10-16T17:57:57.588Z,20.90
2018-10-16T18:00:26.046Z,20.30
2018-10-16T18:02:54.407Z,19.17
2018-10-16T18:05:22.671Z,13.63
2018-10-16T18:07:51.514Z,16.03
2018-10-16T18:10:20.186Z,13.27
2018-10-16T18:12:48.460Z,16.33
2018-10-16T18:15:16.648Z,14.90
2018-10-16T18:17:44.942Z,13.97
2018-10-16T18:20:15.753Z,15.73
2018-10-16T18:22:45.036Z,14.80
2018-10-16T18:25:13.829Z,16.57
2018-10-16T18:27:43.118Z,13.90
2018-10-16T18:30:11.906Z,17.33
2018-10-16T18:32:40.705Z,14.73
2018-10-16T18:35:09.791Z,18.97
2018-10-16T18:37:40.216Z,13.57
2018-10-16T18:40:10.141Z,17.27
2018-10-16T18:42:39.060Z,17.60
2018-10-16T18:45:09.357Z,13.40
2018-10-16T18:47:38.206Z,17.60
2018-10-16T18:50:08.601Z,16.03
2018-10-16T18:52:36.893Z,17.33
2018-10-16T18:55:07.865Z,20.97
2018-10-16T18:57:36.698Z,17.03
2018-10-16T19:00:08.048Z,19.93
2018-10-16T19:02:36.345Z,13.73
2018-10-16T19:05:06.629Z,13.77
2018-10-16T19:07:35.063Z,12.77
2018-10-16T19:10:03.690Z,17.07
2018-10-16T19:12:31.935Z,15.50
2018-10-16T19:15:00.414Z,15.93
2018-10-16T19:17:31.935Z,15.93
2018-10-16T19:20:00.467Z,17.30
2018-10-16T19:22:28.887Z,18.57
2018-10-16T19:24:57.480Z,17.90
2018-10-16T19:27:25.992Z,17.73
2018-10-16T19:29:54.588Z,17.27
2018-10-16T19:32:22.972Z,17.47
2018-10-16T19:34:51.057Z,16.67
2018-10-16T19:37:19.201Z,23.87
2018-10-16T19:39:47.714Z,16.07
2018-10-16T19:42:16.156Z,14.20
2018-10-16T19:44:45.659Z,14.73
2018-10-16T19:47:14.484Z,13.73
2018-10-16T19:49:45.961Z,17.03
2018-10-16T19:52:14.618Z,18.57
2018-10-16T19:54:43.401Z,13.20
2018-10-16T19:57:11.975Z,15.80
2018-10-16T19:59:40.121Z,16.97
2018-10-16T20:02:08.678Z,17.70
2018-10-16T20:04:37.727Z,13.60
2018-10-16T20:07:08.889Z,15.87
2018-10-16T20:09:37.417Z,18.77
2018-10-16T20:12:06.081Z,21.37
2018-10-16T20:14:34.464Z,17.60
2018-10-16T20:17:02.600Z,15.83
2018-10-16T20:19:30.886Z,18.67
2018-10-16T20:21:58.936Z,14.63
2018-10-16T20:24:27.873Z,15.60
2018-10-16T20:26:56.101Z,15.77
2018-10-16T20:29:24.462Z,17.83
2018-10-16T20:31:52.642Z,15.13
2018-10-16T20:34:20.873Z,16.83
2018-10-16T20:36:49.054Z,15.57
2018-10-16T20:39:17.289Z,17.87
2018-10-16T20:41:45.594Z,18.00
2018-10-16T20:44:13.645Z,17.47
2018-10-16T20:46:44.508Z,22.97
2018-10-16T20:49:13.187Z,19.97
2018-10-16T20:51:41.670Z,17.57
2018-10-16T20:54:10.780Z,19.60
2018-10-16T20:56:38.990Z,17.43
2018-10-16T20:59:07.711Z,18.97
2018-10-16T21:01:36.474Z,16.13
2018-10-16T21:04:05.230Z,18.83
2018-10-16T21:06:34.134Z,17.37
2018-10-16T21:09:02.590Z,18.97
2018-10-16T21:11:30.927Z,18.37
2018-10-16T21:13:59.788Z,22.17
2018-10-16T21:16:28.831Z,20.37
2018-10-16T21:18:57.367Z,18.70
2018-10-16T21:21:25.650Z,18.47
2018-10-16T21:23:53.907Z,16.90
2018-10-16T21:26:22.180Z,19.23
2018-10-16T21:28:50.396Z,17.30
2018-10-16T21:31:18.583Z,20.60
2018-10-16T21:33:46.847Z,17.20
2018-10-16T21:36:15.012Z,17.93
2018-10-16T21:38:43.433Z,15.80
2018-10-16T21:41:11.833Z,16.50
2018-10-16T21:43:40.419Z,17.73
2018-10-16T21:46:09.346Z,15.40
2018-10-16T21:48:38.697Z,17.10
2018-10-16T21:51:06.882Z,16.30
2018-10-16T21:53:34.997Z,16.57
2018-10-16T21:56:03.226Z,19.70
2018-10-16T21:58:31.317Z,15.00
2018-10-16T22:01:05.357Z,14.73
2018-10-16T22:03:33.861Z,17.63
2018-10-16T22:06:02.256Z,16.50
2018-10-16T22:08:30.439Z,16.57
2018-10-16T22:10:58.829Z,15.10
2018-10-16T22:13:27.315Z,17.60
2018-10-16T22:15:55.784Z,16.87
2018-10-16T22:18:24.231Z,17.83
2018-10-16T22:20:52.531Z,15.33
2018-10-16T22:23:21.241Z,18.37
2018-10-16T22:25:50.497Z,19.50
2018-10-16T22:28:18.923Z,16.90
2018-10-16T22:30:47.362Z,15.63
2018-10-16T22:33:26.924Z,19.67
2018-10-16T22:35:55.359Z,16.17
2018-10-16T22:38:23.636Z,18.03
2018-10-16T22:40:51.850Z,16.20
2018-10-16T22:43:20.309Z,17.43
2018-10-16T22:45:48.716Z,17.20
2018-10-16T22:48:17.004Z,16.70
2018-10-16T22:50:45.390Z,16.97
2018-10-16T22:53:13.952Z,25.37
2018-10-16T22:55:42.645Z,20.43
2018-10-16T22:58:10.946Z,16.43
2018-10-16T23:00:39.689Z,17.70
2018-10-16T23:03:07.990Z,16.17
2018-10-16T23:05:36.693Z,18.60
2018-10-16T23:08:05.194Z,16.97
2018-10-16T23:10:33.483Z,18.63
2018-10-16T23:13:06.575Z,16.80
2018-10-16T23:15:35.473Z,19.50
2018-10-16T23:18:04.223Z,19.40
2018-10-16T23:20:33.301Z,18.53
2018-10-16T23:23:02.289Z,16.03
2018-10-16T23:25:31.096Z,15.30
2018-10-16T23:27:59.742Z,17.93
2018-10-16T23:30:28.014Z,15.70
2018-10-16T23:32:56.325Z,17.83
2018-10-16T23:35:24.661Z,15.73
2018-10-16T23:37:52.876Z,16.43
2018-10-16T23:40:21.218Z,21.33
2018-10-16T23:42:49.330Z,17.77
2018-10-16T23:45:18.076Z,15.57
2018-10-16T23:47:46.271Z,15.83
2018-10-16T23:50:14.438Z,15.33
2018-10-16T23:52:42.536Z,18.53
2018-10-16T23:55:11.064Z,20.27
2018-10-16T23:57:39.373Z,16.70
